sensor_id;sensor_type;location;lat;lon;timestamp;temperature;humidity
34698;DHT22;61391;50.922;6.928;2022-07-23T00:02:12;21.30;99.90
34698;DHT22;61391;50.922;6.928;2022-07-23T00:04:37;21.30;99.90
34698;DHT22;61391;50.922;6.928;2022-07-23T00:07:03;21.20;99.90
34698;DHT22;61391;50.922;6.928;2022-07-23T00:09:28;21.10;99.90
34698;DHT22;61391;50.922;6.928;2022-07-23T00:11:56;21.10;99.90
34698;DHT22;61391;50.922;6.928;2022-07-23T00:14:22;21.20;99.90
34698;DHT22;61391;50.922;6.928;2022-07-23T00:16:47;21.10;99.90
34698;DHT22;61391;50.922;6.928;2022-07-23T00:19:13;21.10;99.90
34698;DHT22;61391;50.922;6.928;2022-07-23T00:26:51;20.90;99.90
34698;DHT22;61391;50.922;6.928;2022-07-23T00:29:18;20.80;99.90
34698;DHT22;61391;50.922;6.928;2022-07-23T00:31:44;20.80;99.90
34698;DHT22;61391;50.922;6.928;2022-07-23T00:34:09;20.90;99.90
34698;DHT22;61391;50.922;6.928;2022-07-23T00:36:35;20.90;99.90
34698;DHT22;61391;50.922;6.928;2022-07-23T00:39:01;20.90;99.90
34698;DHT22;61391;50.922;6.928;2022-07-23T00:41:26;20.90;99.90
34698;DHT22;61391;50.922;6.928;2022-07-23T00:43:52;20.90;99.90
34698;DHT22;61391;50.922;6.928;2022-07-23T00:46:22;20.50;99.90
34698;DHT22;61391;50.922;6.928;2022-07-23T00:48:48;20.40;99.90
34698;DHT22;61391;50.922;6.928;2022-07-23T00:51:15;20.10;99.90
34698;DHT22;61391;50.922;6.928;2022-07-23T00:53:42;20.20;99.90
34698;DHT22;61391;50.922;6.928;2022-07-23T00:56:07;20.00;99.90
34698;DHT22;61391;50.922;6.928;2022-07-23T00:58:35;19.90;99.90
34698;DHT22;61391;50.922;6.928;2022-07-23T01:01:01;20.20;99.90
34698;DHT22;61391;50.922;6.928;2022-07-23T01:03:27;20.60;99.90
34698;DHT22;61391;50.922;6.928;2022-07-23T01:05:53;20.60;99.90
34698;DHT22;61391;50.922;6.928;2022-07-23T01:08:19;20.60;99.90
34698;DHT22;61391;50.922;6.928;2022-07-23T01:10:46;20.60;99.90
34698;DHT22;61391;50.922;6.928;2022-07-23T01:13:13;20.30;99.90
34698;DHT22;61391;50.922;6.928;2022-07-23T01:15:39;20.20;99.90
34698;DHT22;61391;50.922;6.928;2022-07-23T01:18:06;20.00;99.90
34698;DHT22;61391;50.922;6.928;2022-07-23T01:20:33;20.20;99.90
34698;DHT22;61391;50.922;6.928;2022-07-23T01:22:59;20.00;99.90
34698;DHT22;61391;50.922;6.928;2022-07-23T01:25:25;20.10;99.90
34698;DHT22;61391;50.922;6.928;2022-07-23T01:27:53;19.90;99.90
34698;DHT22;61391;50.922;6.928;2022-07-23T01:30:19;19.90;99.90
34698;DHT22;61391;50.922;6.928;2022-07-23T01:32:45;20.10;99.90
34698;DHT22;61391;50.922;6.928;2022-07-23T01:35:11;20.10;99.90
34698;DHT22;61391;50.922;6.928;2022-07-23T01:37:40;20.20;99.90
34698;DHT22;61391;50.922;6.928;2022-07-23T01:40:06;20.20;99.90
34698;DHT22;61391;50.922;6.928;2022-07-23T01:42:32;20.10;99.90
34698;DHT22;61391;50.922;6.928;2022-07-23T01:44:58;20.10;99.90
34698;DHT22;61391;50.922;6.928;2022-07-23T01:47:23;20.00;99.90
34698;DHT22;61391;50.922;6.928;2022-07-23T01:49:49;20.00;99.90
34698;DHT22;61391;50.922;6.928;2022-07-23T01:52:15;19.90;99.90
34698;DHT22;61391;50.922;6.928;2022-07-23T01:54:41;20.00;99.90
34698;DHT22;61391;50.922;6.928;2022-07-23T01:57:07;19.90;99.90
34698;DHT22;61391;50.922;6.928;2022-07-23T01:59:33;19.90;99.90
34698;DHT22;61391;50.922;6.928;2022-07-23T02:01:59;19.90;99.90
34698;DHT22;61391;50.922;6.928;2022-07-23T02:04:25;19.90;99.90
34698;DHT22;61391;50.922;6.928;2022-07-23T02:06:51;20.00;99.90
34698;DHT22;61391;50.922;6.928;2022-07-23T02:09:17;19.90;99.90
34698;DHT22;61391;50.922;6.928;2022-07-23T02:11:43;20.00;99.90
34698;DHT22;61391;50.922;6.928;2022-07-23T02:14:09;20.00;99.90
34698;DHT22;61391;50.922;6.928;2022-07-23T02:16:34;20.00;99.90
34698;DHT22;61391;50.922;6.928;2022-07-23T02:19:00;20.00;99.90
34698;DHT22;61391;50.922;6.928;2022-07-23T02:21:26;20.00;99.90
34698;DHT22;61391;50.922;6.928;2022-07-23T02:23:51;20.00;99.90
34698;DHT22;61391;50.922;6.928;2022-07-23T02:26:17;20.00;99.90
34698;DHT22;61391;50.922;6.928;2022-07-23T02:28:43;20.00;99.90
34698;DHT22;61391;50.922;6.928;2022-07-23T02:31:08;19.90;99.90
34698;DHT22;61391;50.922;6.928;2022-07-23T02:33:34;20.00;99.90
34698;DHT22;61391;50.922;6.928;2022-07-23T02:36:00;20.00;99.90
34698;DHT22;61391;50.922;6.928;2022-07-23T02:38:26;20.10;99.90
34698;DHT22;61391;50.922;6.928;2022-07-23T02:40:52;19.90;99.90
34698;DHT22;61391;50.922;6.928;2022-07-23T02:43:17;20.00;99.90
34698;DHT22;61391;50.922;6.928;2022-07-23T02:45:43;20.00;99.90
34698;DHT22;61391;50.922;6.928;2022-07-23T02:48:09;20.00;99.90
34698;DHT22;61391;50.922;6.928;2022-07-23T02:50:38;20.00;99.90
34698;DHT22;61391;50.922;6.928;2022-07-23T02:53:04;20.00;99.90
34698;DHT22;61391;50.922;6.928;2022-07-23T02:55:29;20.00;99.90
34698;DHT22;61391;50.922;6.928;2022-07-23T02:57:56;20.00;99.90
34698;DHT22;61391;50.922;6.928;2022-07-23T03:00:22;19.90;99.90
34698;DHT22;61391;50.922;6.928;2022-07-23T03:02:48;19.80;99.90
34698;DHT22;61391;50.922;6.928;2022-07-23T03:05:13;19.80;99.90
34698;DHT22;61391;50.922;6.928;2022-07-23T03:07:39;19.70;99.90
34698;DHT22;61391;50.922;6.928;2022-07-23T03:10:05;19.80;99.90
34698;DHT22;61391;50.922;6.928;2022-07-23T03:12:31;19.80;99.90
34698;DHT22;61391;50.922;6.928;2022-07-23T03:14:56;19.60;99.90
34698;DHT22;61391;50.922;6.928;2022-07-23T03:17:22;19.60;99.90
34698;DHT22;61391;50.922;6.928;2022-07-23T03:19:47;19.70;99.90
34698;DHT22;61391;50.922;6.928;2022-07-23T03:22:13;19.70;99.90
34698;DHT22;61391;50.922;6.928;2022-07-23T03:24:39;19.70;99.90
34698;DHT22;61391;50.922;6.928;2022-07-23T03:27:21;19.70;99.90
34698;DHT22;61391;50.922;6.928;2022-07-23T03:29:47;19.70;99.90
34698;DHT22;61391;50.922;6.928;2022-07-23T03:32:12;19.70;99.90
34698;DHT22;61391;50.922;6.928;2022-07-23T03:34:38;19.60;99.90
34698;DHT22;61391;50.922;6.928;2022-07-23T03:37:04;19.60;99.90
34698;DHT22;61391;50.922;6.928;2022-07-23T03:39:30;19.50;99.90
34698;DHT22;61391;50.922;6.928;2022-07-23T03:41:56;19.60;99.90
34698;DHT22;61391;50.922;6.928;2022-07-23T03:44:22;19.50;99.90
34698;DHT22;61391;50.922;6.928;2022-07-23T03:46:47;19.60;99.90
34698;DHT22;61391;50.922;6.928;2022-07-23T03:49:13;19.60;99.90
34698;DHT22;61391;50.922;6.928;2022-07-23T03:51:39;19.60;99.90
34698;DHT22;61391;50.922;6.928;2022-07-23T03:54:05;19.60;99.90
34698;DHT22;61391;50.922;6.928;2022-07-23T03:56:30;19.60;99.90
34698;DHT22;61391;50.922;6.928;2022-07-23T03:58:56;19.60;99.90
34698;DHT22;61391;50.922;6.928;2022-07-23T04:01:22;19.50;99.90
34698;DHT22;61391;50.922;6.928;2022-07-23T04:03:47;19.50;99.90
34698;DHT22;61391;50.922;6.928;2022-07-23T04:06:13;19.50;99.90
34698;DHT22;61391;50.922;6.928;2022-07-23T04:08:39;19.50;99.90
34698;DHT22;61391;50.922;6.928;2022-07-23T04:11:04;19.50;99.90
34698;DHT22;61391;50.922;6.928;2022-07-23T04:13:30;19.40;99.90
34698;DHT22;61391;50.922;6.928;2022-07-23T04:15:58;19.40;99.90
34698;DHT22;61391;50.922;6.928;2022-07-23T04:18:23;19.50;99.90
34698;DHT22;61391;50.922;6.928;2022-07-23T04:20:51;19.50;99.90
34698;DHT22;61391;50.922;6.928;2022-07-23T04:23:17;19.40;99.90
34698;DHT22;61391;50.922;6.928;2022-07-23T04:25:42;19.50;99.90
34698;DHT22;61391;50.922;6.928;2022-07-23T04:28:08;19.40;99.90
34698;DHT22;61391;50.922;6.928;2022-07-23T04:30:34;19.50;99.90
34698;DHT22;61391;50.922;6.928;2022-07-23T04:33:00;19.50;99.90
34698;DHT22;61391;50.922;6.928;2022-07-23T04:35:26;19.50;99.90
34698;DHT22;61391;50.922;6.928;2022-07-23T04:37:52;19.60;99.90
34698;DHT22;61391;50.922;6.928;2022-07-23T04:40:17;19.60;99.90
34698;DHT22;61391;50.922;6.928;2022-07-23T04:42:43;19.60;99.90
34698;DHT22;61391;50.922;6.928;2022-07-23T04:45:09;19.60;99.90
34698;DHT22;61391;50.922;6.928;2022-07-23T04:47:35;19.50;99.90
34698;DHT22;61391;50.922;6.928;2022-07-23T04:50:00;19.50;99.90
34698;DHT22;61391;50.922;6.928;2022-07-23T04:52:26;19.50;99.90
34698;DHT22;61391;50.922;6.928;2022-07-23T04:54:52;19.60;99.90
34698;DHT22;61391;50.922;6.928;2022-07-23T04:57:17;19.60;99.90
34698;DHT22;61391;50.922;6.928;2022-07-23T04:59:43;19.50;99.90
34698;DHT22;61391;50.922;6.928;2022-07-23T05:02:09;19.50;99.90
34698;DHT22;61391;50.922;6.928;2022-07-23T05:04:34;19.60;99.90
34698;DHT22;61391;50.922;6.928;2022-07-23T05:07:00;19.60;99.90
34698;DHT22;61391;50.922;6.928;2022-07-23T05:09:26;19.60;99.90
34698;DHT22;61391;50.922;6.928;2022-07-23T05:11:51;19.50;99.90
34698;DHT22;61391;50.922;6.928;2022-07-23T05:14:17;19.60;99.90
34698;DHT22;61391;50.922;6.928;2022-07-23T05:16:43;19.70;99.90
34698;DHT22;61391;50.922;6.928;2022-07-23T05:19:08;19.80;99.90
34698;DHT22;61391;50.922;6.928;2022-07-23T05:21:34;19.80;99.90
34698;DHT22;61391;50.922;6.928;2022-07-23T05:24:00;19.90;99.90
34698;DHT22;61391;50.922;6.928;2022-07-23T05:26:25;19.80;99.90
34698;DHT22;61391;50.922;6.928;2022-07-23T05:28:51;19.90;99.90
34698;DHT22;61391;50.922;6.928;2022-07-23T05:31:17;19.90;99.90
34698;DHT22;61391;50.922;6.928;2022-07-23T05:33:43;20.00;99.90
34698;DHT22;61391;50.922;6.928;2022-07-23T05:36:09;20.20;99.90
34698;DHT22;61391;50.922;6.928;2022-07-23T05:38:35;20.30;99.90
34698;DHT22;61391;50.922;6.928;2022-07-23T05:41:02;20.40;99.90
34698;DHT22;61391;50.922;6.928;2022-07-23T05:43:28;20.50;99.90
34698;DHT22;61391;50.922;6.928;2022-07-23T05:45:54;20.60;99.90
34698;DHT22;61391;50.922;6.928;2022-07-23T05:48:20;20.70;99.90
34698;DHT22;61391;50.922;6.928;2022-07-23T05:50:47;20.60;99.90
34698;DHT22;61391;50.922;6.928;2022-07-23T05:53:14;20.60;99.90
34698;DHT22;61391;50.922;6.928;2022-07-23T05:55:40;20.60;99.90
34698;DHT22;61391;50.922;6.928;2022-07-23T05:58:06;20.70;99.90
34698;DHT22;61391;50.922;6.928;2022-07-23T06:00:31;20.70;99.90
34698;DHT22;61391;50.922;6.928;2022-07-23T06:02:57;20.80;99.90
34698;DHT22;61391;50.922;6.928;2022-07-23T06:05:23;20.80;99.90
34698;DHT22;61391;50.922;6.928;2022-07-23T06:07:50;20.90;99.90
34698;DHT22;61391;50.922;6.928;2022-07-23T06:10:16;21.00;99.90
34698;DHT22;61391;50.922;6.928;2022-07-23T06:12:41;21.30;99.90
34698;DHT22;61391;50.922;6.928;2022-07-23T06:15:08;21.30;99.90
34698;DHT22;61391;50.922;6.928;2022-07-23T06:17:35;21.30;99.90
34698;DHT22;61391;50.922;6.928;2022-07-23T06:20:01;21.50;99.90
34698;DHT22;61391;50.922;6.928;2022-07-23T06:22:28;21.70;99.90
34698;DHT22;61391;50.922;6.928;2022-07-23T06:24:53;22.00;99.90
34698;DHT22;61391;50.922;6.928;2022-07-23T06:27:19;22.00;99.90
34698;DHT22;61391;50.922;6.928;2022-07-23T06:29:46;22.20;99.90
34698;DHT22;61391;50.922;6.928;2022-07-23T06:32:12;22.30;99.90
34698;DHT22;61391;50.922;6.928;2022-07-23T06:34:37;22.20;99.90
34698;DHT22;61391;50.922;6.928;2022-07-23T06:37:03;22.20;99.90
34698;DHT22;61391;50.922;6.928;2022-07-23T06:39:29;22.40;99.90
34698;DHT22;61391;50.922;6.928;2022-07-23T06:41:55;22.70;99.90
34698;DHT22;61391;50.922;6.928;2022-07-23T06:44:20;22.70;99.90
34698;DHT22;61391;50.922;6.928;2022-07-23T06:46:46;22.90;99.90
34698;DHT22;61391;50.922;6.928;2022-07-23T06:49:11;22.60;99.90
34698;DHT22;61391;50.922;6.928;2022-07-23T06:51:37;22.90;99.90
34698;DHT22;61391;50.922;6.928;2022-07-23T06:54:03;23.40;99.90
34698;DHT22;61391;50.922;6.928;2022-07-23T06:56:29;23.60;99.90
34698;DHT22;61391;50.922;6.928;2022-07-23T06:58:55;23.50;99.90
34698;DHT22;61391;50.922;6.928;2022-07-23T07:01:21;23.70;99.90
34698;DHT22;61391;50.922;6.928;2022-07-23T07:03:47;24.10;99.90
34698;DHT22;61391;50.922;6.928;2022-07-23T07:06:13;24.30;99.90
34698;DHT22;61391;50.922;6.928;2022-07-23T07:08:40;24.60;99.90
34698;DHT22;61391;50.922;6.928;2022-07-23T07:11:05;25.10;99.90
34698;DHT22;61391;50.922;6.928;2022-07-23T07:13:31;25.30;99.90
34698;DHT22;61391;50.922;6.928;2022-07-23T07:15:57;25.60;99.90
34698;DHT22;61391;50.922;6.928;2022-07-23T07:18:23;25.50;99.90
34698;DHT22;61391;50.922;6.928;2022-07-23T07:20:49;25.70;99.90
34698;DHT22;61391;50.922;6.928;2022-07-23T07:23:21;25.80;99.90
34698;DHT22;61391;50.922;6.928;2022-07-23T07:25:49;26.10;99.90
34698;DHT22;61391;50.922;6.928;2022-07-23T07:28:15;26.30;99.90
34698;DHT22;61391;50.922;6.928;2022-07-23T07:30:42;26.60;99.90
34698;DHT22;61391;50.922;6.928;2022-07-23T07:33:08;26.60;99.90
34698;DHT22;61391;50.922;6.928;2022-07-23T07:35:33;26.80;99.90
34698;DHT22;61391;50.922;6.928;2022-07-23T07:38:00;27.60;99.90
34698;DHT22;61391;50.922;6.928;2022-07-23T07:40:26;27.80;99.90
34698;DHT22;61391;50.922;6.928;2022-07-23T07:42:53;28.30;99.90
34698;DHT22;61391;50.922;6.928;2022-07-23T07:45:23;28.80;99.90
34698;DHT22;61391;50.922;6.928;2022-07-23T07:47:49;28.80;99.90
34698;DHT22;61391;50.922;6.928;2022-07-23T07:50:15;29.00;99.90
34698;DHT22;61391;50.922;6.928;2022-07-23T07:52:41;29.40;99.90
34698;DHT22;61391;50.922;6.928;2022-07-23T07:55:08;29.90;99.90
34698;DHT22;61391;50.922;6.928;2022-07-23T07:57:35;30.40;99.90
34698;DHT22;61391;50.922;6.928;2022-07-23T08:00:00;30.80;99.90
34698;DHT22;61391;50.922;6.928;2022-07-23T08:02:26;30.80;99.90
34698;DHT22;61391;50.922;6.928;2022-07-23T08:04:52;31.50;99.60
34698;DHT22;61391;50.922;6.928;2022-07-23T08:07:18;31.70;97.60
34698;DHT22;61391;50.922;6.928;2022-07-23T08:09:44;31.40;97.80
34698;DHT22;61391;50.922;6.928;2022-07-23T08:12:10;31.60;97.60
34698;DHT22;61391;50.922;6.928;2022-07-23T08:14:35;32.00;96.90
34698;DHT22;61391;50.922;6.928;2022-07-23T08:17:01;31.20;96.90
34698;DHT22;61391;50.922;6.928;2022-07-23T08:19:27;30.50;97.50
34698;DHT22;61391;50.922;6.928;2022-07-23T08:21:52;29.80;98.40
34698;DHT22;61391;50.922;6.928;2022-07-23T08:24:18;29.10;99.50
34698;DHT22;61391;50.922;6.928;2022-07-23T08:26:44;29.20;99.60
34698;DHT22;61391;50.922;6.928;2022-07-23T08:29:10;29.70;99.30
34698;DHT22;61391;50.922;6.928;2022-07-23T08:31:35;29.70;99.50
34698;DHT22;61391;50.922;6.928;2022-07-23T08:34:02;30.30;98.20
34698;DHT22;61391;50.922;6.928;2022-07-23T08:36:28;30.80;98.00
34698;DHT22;61391;50.922;6.928;2022-07-23T08:39:00;31.50;97.00
34698;DHT22;61391;50.922;6.928;2022-07-23T08:41:31;31.90;95.60
34698;DHT22;61391;50.922;6.928;2022-07-23T08:43:58;32.20;94.50
34698;DHT22;61391;50.922;6.928;2022-07-23T08:46:26;32.20;94.90
34698;DHT22;61391;50.922;6.928;2022-07-23T08:48:53;32.60;94.50
34698;DHT22;61391;50.922;6.928;2022-07-23T08:51:19;32.50;94.50
34698;DHT22;61391;50.922;6.928;2022-07-23T08:53:46;31.60;94.70
34698;DHT22;61391;50.922;6.928;2022-07-23T08:56:13;31.20;94.80
34698;DHT22;61391;50.922;6.928;2022-07-23T08:58:38;30.60;95.50
34698;DHT22;61391;50.922;6.928;2022-07-23T09:01:04;30.10;96.70
34698;DHT22;61391;50.922;6.928;2022-07-23T09:03:33;29.30;97.00
34698;DHT22;61391;50.922;6.928;2022-07-23T09:05:59;29.40;97.70
34698;DHT22;61391;50.922;6.928;2022-07-23T09:11:05;30.80;95.10
34698;DHT22;61391;50.922;6.928;2022-07-23T09:13:38;30.70;95.00
34698;DHT22;61391;50.922;6.928;2022-07-23T09:16:18;30.80;95.80
34698;DHT22;61391;50.922;6.928;2022-07-23T09:18:48;31.20;94.90
34698;DHT22;61391;50.922;6.928;2022-07-23T09:21:21;31.60;94.00
34698;DHT22;61391;50.922;6.928;2022-07-23T09:24:10;32.10;93.50
34698;DHT22;61391;50.922;6.928;2022-07-23T09:26:45;32.20;93.40
34698;DHT22;61391;50.922;6.928;2022-07-23T09:29:22;32.00;93.00
34698;DHT22;61391;50.922;6.928;2022-07-23T09:31:56;31.50;93.30
34698;DHT22;61391;50.922;6.928;2022-07-23T09:34:24;31.70;93.20
34698;DHT22;61391;50.922;6.928;2022-07-23T09:36:56;32.10;93.10
34698;DHT22;61391;50.922;6.928;2022-07-23T09:39:33;31.60;92.80
34698;DHT22;61391;50.922;6.928;2022-07-23T09:42:23;31.70;92.80
34698;DHT22;61391;50.922;6.928;2022-07-23T09:44:54;32.10;92.30
34698;DHT22;61391;50.922;6.928;2022-07-23T09:47:22;32.10;92.20
34698;DHT22;61391;50.922;6.928;2022-07-23T09:50:03;33.00;91.50
34698;DHT22;61391;50.922;6.928;2022-07-23T09:52:36;33.10;90.80
34698;DHT22;61391;50.922;6.928;2022-07-23T09:55:06;33.50;89.70
34698;DHT22;61391;50.922;6.928;2022-07-23T09:57:33;34.20;87.30
34698;DHT22;61391;50.922;6.928;2022-07-23T10:00:02;34.60;88.60
34698;DHT22;61391;50.922;6.928;2022-07-23T10:02:32;34.90;86.40
34698;DHT22;61391;50.922;6.928;2022-07-23T10:04:59;34.60;85.10
34698;DHT22;61391;50.922;6.928;2022-07-23T10:07:26;33.90;86.20
34698;DHT22;61391;50.922;6.928;2022-07-23T10:09:52;33.70;87.70
34698;DHT22;61391;50.922;6.928;2022-07-23T10:12:22;34.10;86.70
34698;DHT22;61391;50.922;6.928;2022-07-23T10:15:07;34.70;86.30
34698;DHT22;61391;50.922;6.928;2022-07-23T10:17:34;35.10;84.00
34698;DHT22;61391;50.922;6.928;2022-07-23T10:20:00;34.80;80.30
34698;DHT22;61391;50.922;6.928;2022-07-23T10:22:33;34.60;81.70
34698;DHT22;61391;50.922;6.928;2022-07-23T10:25:27;34.90;81.90
34698;DHT22;61391;50.922;6.928;2022-07-23T10:36:49;34.80;78.50
34698;DHT22;61391;50.922;6.928;2022-07-23T10:39:20;34.80;78.60
34698;DHT22;61391;50.922;6.928;2022-07-23T10:41:47;35.30;78.00
34698;DHT22;61391;50.922;6.928;2022-07-23T10:44:17;35.90;76.70
34698;DHT22;61391;50.922;6.928;2022-07-23T10:49:30;36.40;74.90
34698;DHT22;61391;50.922;6.928;2022-07-23T10:57:48;35.20;77.70
34698;DHT22;61391;50.922;6.928;2022-07-23T11:00:15;35.80;74.00
34698;DHT22;61391;50.922;6.928;2022-07-23T11:02:45;35.90;74.60
34698;DHT22;61391;50.922;6.928;2022-07-23T11:05:14;35.00;75.50
34698;DHT22;61391;50.922;6.928;2022-07-23T11:11:07;35.90;72.60
34698;DHT22;61391;50.922;6.928;2022-07-23T11:13:42;36.00;72.90
34698;DHT22;61391;50.922;6.928;2022-07-23T11:16:14;36.10;73.40
34698;DHT22;61391;50.922;6.928;2022-07-23T11:24:10;36.60;72.50
34698;DHT22;61391;50.922;6.928;2022-07-23T11:26:43;36.80;70.40
34698;DHT22;61391;50.922;6.928;2022-07-23T11:32:04;35.90;70.40
34698;DHT22;61391;50.922;6.928;2022-07-23T11:37:03;36.60;68.50
34698;DHT22;61391;50.922;6.928;2022-07-23T11:39:30;37.50;66.50
34698;DHT22;61391;50.922;6.928;2022-07-23T11:41:56;38.10;66.80
34698;DHT22;61391;50.922;6.928;2022-07-23T11:44:34;38.90;63.90
34698;DHT22;61391;50.922;6.928;2022-07-23T11:47:05;38.50;64.80
34698;DHT22;61391;50.922;6.928;2022-07-23T11:49:31;38.80;64.90
34698;DHT22;61391;50.922;6.928;2022-07-23T11:54:33;38.80;64.50
34698;DHT22;61391;50.922;6.928;2022-07-23T11:57:00;37.90;64.80
34698;DHT22;61391;50.922;6.928;2022-07-23T11:59:27;38.80;63.30
34698;DHT22;61391;50.922;6.928;2022-07-23T12:02:02;39.00;63.20
34698;DHT22;61391;50.922;6.928;2022-07-23T12:04:41;38.50;63.60
34698;DHT22;61391;50.922;6.928;2022-07-23T12:12:50;38.10;60.70
34698;DHT22;61391;50.922;6.928;2022-07-23T12:15:20;37.00;62.30
34698;DHT22;61391;50.922;6.928;2022-07-23T12:17:48;35.40;63.60
34698;DHT22;61391;50.922;6.928;2022-07-23T12:20:21;34.00;65.40
34698;DHT22;61391;50.922;6.928;2022-07-23T12:22:49;33.40;68.40
34698;DHT22;61391;50.922;6.928;2022-07-23T12:25:18;32.80;68.90
34698;DHT22;61391;50.922;6.928;2022-07-23T12:27:45;32.10;68.30
34698;DHT22;61391;50.922;6.928;2022-07-23T12:30:25;31.30;70.60
34698;DHT22;61391;50.922;6.928;2022-07-23T12:32:55;31.10;73.20
34698;DHT22;61391;50.922;6.928;2022-07-23T12:35:22;30.70;73.50
34698;DHT22;61391;50.922;6.928;2022-07-23T12:37:50;30.60;73.30
34698;DHT22;61391;50.922;6.928;2022-07-23T12:40:30;30.50;74.40
34698;DHT22;61391;50.922;6.928;2022-07-23T12:43:00;30.20;75.70
34698;DHT22;61391;50.922;6.928;2022-07-23T12:45:28;30.10;75.30
34698;DHT22;61391;50.922;6.928;2022-07-23T12:48:05;29.90;75.60
34698;DHT22;61391;50.922;6.928;2022-07-23T12:53:17;29.00;76.10
34698;DHT22;61391;50.922;6.928;2022-07-23T12:55:45;29.10;79.00
34698;DHT22;61391;50.922;6.928;2022-07-23T12:58:17;29.20;79.70
34698;DHT22;61391;50.922;6.928;2022-07-23T13:00:57;29.20;78.90
34698;DHT22;61391;50.922;6.928;2022-07-23T13:03:23;29.30;78.80
34698;DHT22;61391;50.922;6.928;2022-07-23T13:05:49;29.40;80.40
34698;DHT22;61391;50.922;6.928;2022-07-23T13:08:16;29.50;78.40
34698;DHT22;61391;50.922;6.928;2022-07-23T13:10:42;29.60;75.40
34698;DHT22;61391;50.922;6.928;2022-07-23T13:13:10;29.10;77.40
34698;DHT22;61391;50.922;6.928;2022-07-23T13:15:36;29.00;81.20
34698;DHT22;61391;50.922;6.928;2022-07-23T13:18:02;29.10;80.30
34698;DHT22;61391;50.922;6.928;2022-07-23T13:20:28;29.30;79.70
34698;DHT22;61391;50.922;6.928;2022-07-23T13:22:54;29.20;77.70
34698;DHT22;61391;50.922;6.928;2022-07-23T13:25:19;29.40;80.50
34698;DHT22;61391;50.922;6.928;2022-07-23T13:27:45;29.40;79.00
34698;DHT22;61391;50.922;6.928;2022-07-23T13:30:11;29.50;78.20
34698;DHT22;61391;50.922;6.928;2022-07-23T13:32:38;29.50;77.20
34698;DHT22;61391;50.922;6.928;2022-07-23T13:35:04;29.50;77.10
34698;DHT22;61391;50.922;6.928;2022-07-23T13:37:30;29.30;78.20
34698;DHT22;61391;50.922;6.928;2022-07-23T13:39:55;29.30;78.00
34698;DHT22;61391;50.922;6.928;2022-07-23T13:42:22;29.20;79.00
34698;DHT22;61391;50.922;6.928;2022-07-23T13:44:47;29.30;79.10
34698;DHT22;61391;50.922;6.928;2022-07-23T13:47:13;29.30;78.20
34698;DHT22;61391;50.922;6.928;2022-07-23T13:49:39;29.40;79.20
34698;DHT22;61391;50.922;6.928;2022-07-23T13:52:05;29.40;78.60
34698;DHT22;61391;50.922;6.928;2022-07-23T13:54:31;29.50;79.00
34698;DHT22;61391;50.922;6.928;2022-07-23T13:56:56;29.40;77.70
34698;DHT22;61391;50.922;6.928;2022-07-23T13:59:22;29.30;79.20
34698;DHT22;61391;50.922;6.928;2022-07-23T14:01:48;29.20;79.90
34698;DHT22;61391;50.922;6.928;2022-07-23T14:04:13;29.30;78.90
34698;DHT22;61391;50.922;6.928;2022-07-23T14:06:39;29.10;79.40
34698;DHT22;61391;50.922;6.928;2022-07-23T14:14:27;29.00;79.70
34698;DHT22;61391;50.922;6.928;2022-07-23T14:16:55;28.90;78.90
34698;DHT22;61391;50.922;6.928;2022-07-23T14:19:22;28.80;82.20
34698;DHT22;61391;50.922;6.928;2022-07-23T14:21:49;28.00;82.50
34698;DHT22;61391;50.922;6.928;2022-07-23T14:24:17;27.90;83.10
34698;DHT22;61391;50.922;6.928;2022-07-23T14:26:54;28.20;82.40
34698;DHT22;61391;50.922;6.928;2022-07-23T14:29:26;28.30;82.10
34698;DHT22;61391;50.922;6.928;2022-07-23T14:31:52;28.50;82.10
34698;DHT22;61391;50.922;6.928;2022-07-23T14:34:18;28.40;82.10
34698;DHT22;61391;50.922;6.928;2022-07-23T14:36:44;28.70;81.30
34698;DHT22;61391;50.922;6.928;2022-07-23T14:39:13;28.70;81.90
34698;DHT22;61391;50.922;6.928;2022-07-23T14:41:39;28.30;82.00
34698;DHT22;61391;50.922;6.928;2022-07-23T14:44:06;27.90;82.90
34698;DHT22;61391;50.922;6.928;2022-07-23T14:46:31;27.80;81.40
34698;DHT22;61391;50.922;6.928;2022-07-23T14:49:00;27.40;83.10
34698;DHT22;61391;50.922;6.928;2022-07-23T14:51:26;27.50;85.10
34698;DHT22;61391;50.922;6.928;2022-07-23T14:53:51;27.70;82.40
34698;DHT22;61391;50.922;6.928;2022-07-23T14:56:17;27.80;82.20
34698;DHT22;61391;50.922;6.928;2022-07-23T14:58:44;27.60;82.40
34698;DHT22;61391;50.922;6.928;2022-07-23T15:01:09;27.80;83.00
34698;DHT22;61391;50.922;6.928;2022-07-23T15:03:38;28.10;80.30
34698;DHT22;61391;50.922;6.928;2022-07-23T15:06:04;28.10;81.40
34698;DHT22;61391;50.922;6.928;2022-07-23T15:08:30;27.90;83.10
34698;DHT22;61391;50.922;6.928;2022-07-23T15:10:59;27.80;83.50
34698;DHT22;61391;50.922;6.928;2022-07-23T15:13:25;27.60;84.90
34698;DHT22;61391;50.922;6.928;2022-07-23T15:16:00;27.50;84.00
34698;DHT22;61391;50.922;6.928;2022-07-23T15:18:26;27.70;84.50
34698;DHT22;61391;50.922;6.928;2022-07-23T15:21:08;27.90;84.50
34698;DHT22;61391;50.922;6.928;2022-07-23T15:23:33;28.20;85.00
34698;DHT22;61391;50.922;6.928;2022-07-23T15:26:00;28.30;83.30
34698;DHT22;61391;50.922;6.928;2022-07-23T15:28:26;28.30;82.20
34698;DHT22;61391;50.922;6.928;2022-07-23T15:30:52;28.10;81.80
34698;DHT22;61391;50.922;6.928;2022-07-23T15:33:19;28.20;84.40
34698;DHT22;61391;50.922;6.928;2022-07-23T15:35:45;28.20;82.40
34698;DHT22;61391;50.922;6.928;2022-07-23T15:38:11;28.30;82.20
34698;DHT22;61391;50.922;6.928;2022-07-23T15:40:44;28.40;81.00
34698;DHT22;61391;50.922;6.928;2022-07-23T15:43:12;28.50;81.20
34698;DHT22;61391;50.922;6.928;2022-07-23T15:45:39;28.30;82.60
34698;DHT22;61391;50.922;6.928;2022-07-23T15:48:05;28.10;83.20
34698;DHT22;61391;50.922;6.928;2022-07-23T15:50:51;28.20;81.80
34698;DHT22;61391;50.922;6.928;2022-07-23T15:53:17;28.30;82.10
34698;DHT22;61391;50.922;6.928;2022-07-23T15:55:49;28.20;81.80
34698;DHT22;61391;50.922;6.928;2022-07-23T16:14:05;28.50;81.60
34698;DHT22;61391;50.922;6.928;2022-07-23T16:16:25;28.40;82.70
34698;DHT22;61391;50.922;6.928;2022-07-23T16:18:52;28.30;83.80
34698;DHT22;61391;50.922;6.928;2022-07-23T16:21:18;28.30;83.20
34698;DHT22;61391;50.922;6.928;2022-07-23T16:23:52;28.40;81.30
34698;DHT22;61391;50.922;6.928;2022-07-23T16:26:18;28.00;82.70
34698;DHT22;61391;50.922;6.928;2022-07-23T16:28:46;27.70;82.20
34698;DHT22;61391;50.922;6.928;2022-07-23T16:31:16;27.90;83.40
34698;DHT22;61391;50.922;6.928;2022-07-23T16:33:44;27.90;82.30
34698;DHT22;61391;50.922;6.928;2022-07-23T16:36:10;27.90;82.80
34698;DHT22;61391;50.922;6.928;2022-07-23T16:38:38;28.00;82.20
34698;DHT22;61391;50.922;6.928;2022-07-23T16:41:10;28.00;82.70
34698;DHT22;61391;50.922;6.928;2022-07-23T16:43:36;27.90;82.10